sensor_id;sensor_type;location;lat;lon;timestamp;P1;durP1;ratioP1;P2;durP2;ratioP2
76336;SDS011;65157;50.082;18.178;2023-04-15T00:00:07;33.50;;;16.40;;
76336;SDS011;65157;50.082;18.178;2023-04-15T00:02:55;31.00;;;15.60;;
76336;SDS011;65157;50.082;18.178;2023-04-15T00:05:22;29.60;;;15.50;;
76336;SDS011;65157;50.082;18.178;2023-04-15T00:07:48;29.30;;;16.20;;
76336;SDS011;65157;50.082;18.178;2023-04-15T00:10:15;31.60;;;16.20;;
76336;SDS011;65157;50.082;18.178;2023-04-15T00:12:45;30.50;;;16.00;;
76336;SDS011;65157;50.082;18.178;2023-04-15T00:15:12;27.90;;;15.40;;
76336;SDS011;65157;50.082;18.178;2023-04-15T00:17:41;31.10;;;16.60;;
76336;SDS011;65157;50.082;18.178;2023-04-15T00:20:08;34.90;;;17.60;;
76336;SDS011;65157;50.082;18.178;2023-04-15T00:22:35;32.80;;;15.90;;
76336;SDS011;65157;50.082;18.178;2023-04-15T00:25:02;31.10;;;15.60;;
76336;SDS011;65157;50.082;18.178;2023-04-15T00:27:28;32.50;;;17.00;;
76336;SDS011;65157;50.082;18.178;2023-04-15T00:29:55;32.20;;;15.90;;
76336;SDS011;65157;50.082;18.178;2023-04-15T00:32:22;31.20;;;15.30;;
76336;SDS011;65157;50.082;18.178;2023-04-15T00:34:48;32.30;;;16.00;;
76336;SDS011;65157;50.082;18.178;2023-04-15T00:37:15;29.50;;;15.50;;
76336;SDS011;65157;50.082;18.178;2023-04-15T00:39:42;30.80;;;13.60;;
76336;SDS011;65157;50.082;18.178;2023-04-15T00:42:08;30.20;;;16.00;;
76336;SDS011;65157;50.082;18.178;2023-04-15T00:44:35;30.30;;;14.10;;
76336;SDS011;65157;50.082;18.178;2023-04-15T00:47:02;28.60;;;14.50;;
76336;SDS011;65157;50.082;18.178;2023-04-15T00:49:30;27.00;;;13.80;;
76336;SDS011;65157;50.082;18.178;2023-04-15T00:52:02;25.90;;;12.80;;
76336;SDS011;65157;50.082;18.178;2023-04-15T00:54:28;27.20;;;13.00;;
76336;SDS011;65157;50.082;18.178;2023-04-15T00:56:55;25.90;;;12.90;;
76336;SDS011;65157;50.082;18.178;2023-04-15T00:59:22;27.10;;;13.50;;
76336;SDS011;65157;50.082;18.178;2023-04-15T01:01:49;26.10;;;12.30;;
76336;SDS011;65157;50.082;18.178;2023-04-15T01:04:16;24.60;;;13.10;;
76336;SDS011;65157;50.082;18.178;2023-04-15T01:06:45;23.30;;;11.90;;
76336;SDS011;65157;50.082;18.178;2023-04-15T01:09:11;22.30;;;11.50;;
76336;SDS011;65157;50.082;18.178;2023-04-15T01:11:38;18.50;;;10.20;;
76336;SDS011;65157;50.082;18.178;2023-04-15T01:14:08;19.00;;;10.50;;
76336;SDS011;65157;50.082;18.178;2023-04-15T01:16:36;18.20;;;9.60;;
76336;SDS011;65157;50.082;18.178;2023-04-15T01:19:07;15.00;;;8.10;;
76336;SDS011;65157;50.082;18.178;2023-04-15T01:21:36;12.80;;;6.70;;
76336;SDS011;65157;50.082;18.178;2023-04-15T01:26:33;11.30;;;5.60;;
76336;SDS011;65157;50.082;18.178;2023-04-15T01:29:00;11.30;;;5.70;;
76336;SDS011;65157;50.082;18.178;2023-04-15T01:31:26;8.60;;;5.10;;
76336;SDS011;65157;50.082;18.178;2023-04-15T01:33:53;9.40;;;5.10;;
76336;SDS011;65157;50.082;18.178;2023-04-15T01:36:22;9.10;;;5.40;;
76336;SDS011;65157;50.082;18.178;2023-04-15T01:38:49;8.00;;;4.90;;
76336;SDS011;65157;50.082;18.178;2023-04-15T01:41:20;8.00;;;5.30;;
76336;SDS011;65157;50.082;18.178;2023-04-15T01:43:49;6.70;;;4.60;;
76336;SDS011;65157;50.082;18.178;2023-04-15T01:46:17;7.20;;;4.10;;
76336;SDS011;65157;50.082;18.178;2023-04-15T01:48:44;5.60;;;3.40;;
76336;SDS011;65157;50.082;18.178;2023-04-15T01:51:11;4.60;;;3.00;;
76336;SDS011;65157;50.082;18.178;2023-04-15T01:53:37;5.70;;;3.10;;
76336;SDS011;65157;50.082;18.178;2023-04-15T01:56:04;6.70;;;3.90;;
76336;SDS011;65157;50.082;18.178;2023-04-15T01:58:31;5.80;;;3.00;;
76336;SDS011;65157;50.082;18.178;2023-04-15T02:00:58;3.50;;;2.90;;
76336;SDS011;65157;50.082;18.178;2023-04-15T02:03:24;3.20;;;2.50;;
76336;SDS011;65157;50.082;18.178;2023-04-15T02:05:51;4.10;;;2.30;;
76336;SDS011;65157;50.082;18.178;2023-04-15T02:08:18;3.00;;;2.10;;
76336;SDS011;65157;50.082;18.178;2023-04-15T02:10:44;2.60;;;1.90;;
76336;SDS011;65157;50.082;18.178;2023-04-15T02:13:11;4.70;;;2.20;;
76336;SDS011;65157;50.082;18.178;2023-04-15T02:15:38;3.60;;;2.30;;
76336;SDS011;65157;50.082;18.178;2023-04-15T02:18:04;3.80;;;2.30;;
76336;SDS011;65157;50.082;18.178;2023-04-15T02:20:31;4.50;;;2.30;;
76336;SDS011;65157;50.082;18.178;2023-04-15T02:22:57;2.20;;;2.00;;
76336;SDS011;65157;50.082;18.178;2023-04-15T02:25:24;2.20;;;1.80;;
76336;SDS011;65157;50.082;18.178;2023-04-15T02:27:51;3.40;;;1.80;;
76336;SDS011;65157;50.082;18.178;2023-04-15T02:30:17;2.60;;;1.90;;
76336;SDS011;65157;50.082;18.178;2023-04-15T02:32:44;1.80;;;1.70;;
76336;SDS011;65157;50.082;18.178;2023-04-15T02:35:11;2.30;;;1.90;;
76336;SDS011;65157;50.082;18.178;2023-04-15T02:37:38;2.30;;;2.00;;
76336;SDS011;65157;50.082;18.178;2023-04-15T02:40:06;2.40;;;2.20;;
76336;SDS011;65157;50.082;18.178;2023-04-15T02:42:34;2.40;;;2.10;;
76336;SDS011;65157;50.082;18.178;2023-04-15T02:45:01;2.60;;;2.20;;
76336;SDS011;65157;50.082;18.178;2023-04-15T02:47:29;2.70;;;2.50;;
76336;SDS011;65157;50.082;18.178;2023-04-15T02:49:56;4.10;;;2.80;;
76336;SDS011;65157;50.082;18.178;2023-04-15T02:52:23;3.60;;;2.60;;
76336;SDS011;65157;50.082;18.178;2023-04-15T02:54:50;2.60;;;2.20;;
76336;SDS011;65157;50.082;18.178;2023-04-15T02:57:16;3.20;;;2.70;;
76336;SDS011;65157;50.082;18.178;2023-04-15T02:59:43;2.80;;;2.50;;
76336;SDS011;65157;50.082;18.178;2023-04-15T03:02:10;4.80;;;3.20;;
76336;SDS011;65157;50.082;18.178;2023-04-15T03:04:36;3.90;;;2.50;;
76336;SDS011;65157;50.082;18.178;2023-04-15T03:07:03;3.20;;;2.70;;
76336;SDS011;65157;50.082;18.178;2023-04-15T03:09:30;3.00;;;2.00;;
76336;SDS011;65157;50.082;18.178;2023-04-15T03:11:57;2.80;;;2.40;;
76336;SDS011;65157;50.082;18.178;2023-04-15T03:14:24;2.90;;;2.40;;
76336;SDS011;65157;50.082;18.178;2023-04-15T03:16:50;2.40;;;2.20;;
76336;SDS011;65157;50.082;18.178;2023-04-15T03:19:17;2.70;;;2.20;;
76336;SDS011;65157;50.082;18.178;2023-04-15T03:21:44;2.40;;;2.20;;
76336;SDS011;65157;50.082;18.178;2023-04-15T03:24:10;4.20;;;3.20;;
76336;SDS011;65157;50.082;18.178;2023-04-15T03:26:37;3.90;;;3.10;;
76336;SDS011;65157;50.082;18.178;2023-04-15T03:29:04;3.30;;;3.00;;
76336;SDS011;65157;50.082;18.178;2023-04-15T03:31:30;3.20;;;2.90;;
76336;SDS011;65157;50.082;18.178;2023-04-15T03:33:57;14.30;;;6.20;;
76336;SDS011;65157;50.082;18.178;2023-04-15T03:36:24;22.60;;;7.40;;
76336;SDS011;65157;50.082;18.178;2023-04-15T03:38:50;17.10;;;6.30;;
76336;SDS011;65157;50.082;18.178;2023-04-15T03:41:17;11.10;;;5.40;;
76336;SDS011;65157;50.082;18.178;2023-04-15T03:43:44;5.50;;;3.00;;
76336;SDS011;65157;50.082;18.178;2023-04-15T03:46:11;4.90;;;3.20;;
76336;SDS011;65157;50.082;18.178;2023-04-15T03:48:37;4.20;;;3.50;;
76336;SDS011;65157;50.082;18.178;2023-04-15T03:51:04;4.80;;;3.50;;
76336;SDS011;65157;50.082;18.178;2023-04-15T03:53:31;3.20;;;2.90;;
76336;SDS011;65157;50.082;18.178;2023-04-15T03:55:57;5.10;;;3.60;;
76336;SDS011;65157;50.082;18.178;2023-04-15T03:58:24;4.30;;;3.40;;
76336;SDS011;65157;50.082;18.178;2023-04-15T04:00:51;5.00;;;3.10;;
76336;SDS011;65157;50.082;18.178;2023-04-15T04:03:18;3.90;;;3.50;;
76336;SDS011;65157;50.082;18.178;2023-04-15T04:05:44;3.60;;;2.80;;
76336;SDS011;65157;50.082;18.178;2023-04-15T04:08:14;4.30;;;3.10;;
76336;SDS011;65157;50.082;18.178;2023-04-15T04:10:43;3.20;;;2.80;;
76336;SDS011;65157;50.082;18.178;2023-04-15T04:13:10;3.80;;;3.30;;
76336;SDS011;65157;50.082;18.178;2023-04-15T04:15:36;5.00;;;3.90;;
76336;SDS011;65157;50.082;18.178;2023-04-15T04:18:03;5.60;;;3.70;;
76336;SDS011;65157;50.082;18.178;2023-04-15T04:20:30;5.40;;;3.70;;
76336;SDS011;65157;50.082;18.178;2023-04-15T04:22:57;5.30;;;3.60;;
76336;SDS011;65157;50.082;18.178;2023-04-15T04:25:23;5.20;;;3.90;;
76336;SDS011;65157;50.082;18.178;2023-04-15T04:27:50;4.80;;;3.60;;
76336;SDS011;65157;50.082;18.178;2023-04-15T04:30:17;6.40;;;3.90;;
76336;SDS011;65157;50.082;18.178;2023-04-15T04:32:48;5.30;;;3.50;;
76336;SDS011;65157;50.082;18.178;2023-04-15T04:35:18;6.80;;;4.70;;
76336;SDS011;65157;50.082;18.178;2023-04-15T04:37:45;7.20;;;4.80;;
76336;SDS011;65157;50.082;18.178;2023-04-15T04:40:12;8.00;;;5.50;;
76336;SDS011;65157;50.082;18.178;2023-04-15T04:42:38;9.40;;;5.80;;
76336;SDS011;65157;50.082;18.178;2023-04-15T04:45:05;8.90;;;5.80;;
76336;SDS011;65157;50.082;18.178;2023-04-15T04:47:34;8.10;;;5.80;;
76336;SDS011;65157;50.082;18.178;2023-04-15T04:50:01;7.90;;;5.20;;
76336;SDS011;65157;50.082;18.178;2023-04-15T04:52:28;7.10;;;4.90;;
76336;SDS011;65157;50.082;18.178;2023-04-15T04:54:55;7.90;;;5.10;;
76336;SDS011;65157;50.082;18.178;2023-04-15T04:57:21;8.70;;;5.70;;
76336;SDS011;65157;50.082;18.178;2023-04-15T04:59:48;7.60;;;5.80;;
76336;SDS011;65157;50.082;18.178;2023-04-15T05:02:17;9.80;;;5.40;;
76336;SDS011;65157;50.082;18.178;2023-04-15T05:04:44;6.60;;;4.50;;
76336;SDS011;65157;50.082;18.178;2023-04-15T05:07:11;6.60;;;4.70;;
76336;SDS011;65157;50.082;18.178;2023-04-15T05:09:37;8.10;;;4.90;;
76336;SDS011;65157;50.082;18.178;2023-04-15T05:12:04;4.40;;;3.10;;
76336;SDS011;65157;50.082;18.178;2023-04-15T05:14:31;4.60;;;3.10;;
76336;SDS011;65157;50.082;18.178;2023-04-15T05:16:58;5.10;;;3.10;;
76336;SDS011;65157;50.082;18.178;2023-04-15T05:19:24;4.40;;;3.10;;
76336;SDS011;65157;50.082;18.178;2023-04-15T05:21:51;5.10;;;3.40;;
76336;SDS011;65157;50.082;18.178;2023-04-15T05:24:18;6.20;;;5.10;;
76336;SDS011;65157;50.082;18.178;2023-04-15T05:26:44;8.50;;;5.80;;
76336;SDS011;65157;50.082;18.178;2023-04-15T05:29:11;7.40;;;4.90;;
76336;SDS011;65157;50.082;18.178;2023-04-15T05:31:38;7.10;;;4.70;;
76336;SDS011;65157;50.082;18.178;2023-04-15T05:34:05;8.30;;;5.20;;
76336;SDS011;65157;50.082;18.178;2023-04-15T05:36:32;6.40;;;5.40;;
76336;SDS011;65157;50.082;18.178;2023-04-15T05:39:03;8.10;;;5.30;;
76336;SDS011;65157;50.082;18.178;2023-04-15T05:41:29;6.80;;;5.00;;
76336;SDS011;65157;50.082;18.178;2023-04-15T05:43:56;6.90;;;4.50;;
76336;SDS011;65157;50.082;18.178;2023-04-15T05:46:23;8.70;;;4.80;;
76336;SDS011;65157;50.082;18.178;2023-04-15T05:48:49;10.10;;;5.80;;
76336;SDS011;65157;50.082;18.178;2023-04-15T05:51:16;7.30;;;5.60;;
76336;SDS011;65157;50.082;18.178;2023-04-15T05:53:42;8.50;;;6.30;;
76336;SDS011;65157;50.082;18.178;2023-04-15T05:56:09;8.70;;;6.00;;
76336;SDS011;65157;50.082;18.178;2023-04-15T05:58:36;11.90;;;7.80;;
76336;SDS011;65157;50.082;18.178;2023-04-15T06:01:03;10.70;;;7.80;;
76336;SDS011;65157;50.082;18.178;2023-04-15T06:03:30;11.20;;;7.10;;
76336;SDS011;65157;50.082;18.178;2023-04-15T06:06:03;11.50;;;7.90;;
76336;SDS011;65157;50.082;18.178;2023-04-15T06:08:29;9.60;;;6.40;;
76336;SDS011;65157;50.082;18.178;2023-04-15T06:10:59;8.90;;;6.30;;
76336;SDS011;65157;50.082;18.178;2023-04-15T06:13:25;8.80;;;6.10;;
76336;SDS011;65157;50.082;18.178;2023-04-15T06:15:54;8.10;;;5.60;;
76336;SDS011;65157;50.082;18.178;2023-04-15T06:18:21;6.10;;;4.90;;
76336;SDS011;65157;50.082;18.178;2023-04-15T06:20:55;5.50;;;4.30;;
76336;SDS011;65157;50.082;18.178;2023-04-15T06:23:22;4.80;;;3.20;;
76336;SDS011;65157;50.082;18.178;2023-04-15T06:25:49;4.40;;;3.40;;
76336;SDS011;65157;50.082;18.178;2023-04-15T06:28:15;6.70;;;4.30;;
76336;SDS011;65157;50.082;18.178;2023-04-15T06:33:09;4.90;;;4.40;;
76336;SDS011;65157;50.082;18.178;2023-04-15T06:35:36;5.80;;;4.20;;
76336;SDS011;65157;50.082;18.178;2023-04-15T06:38:02;6.10;;;4.50;;
76336;SDS011;65157;50.082;18.178;2023-04-15T06:40:29;6.40;;;4.80;;
76336;SDS011;65157;50.082;18.178;2023-04-15T06:42:57;5.60;;;4.40;;
76336;SDS011;65157;50.082;18.178;2023-04-15T06:45:23;5.90;;;5.30;;
76336;SDS011;65157;50.082;18.178;2023-04-15T06:47:50;6.00;;;5.00;;
76336;SDS011;65157;50.082;18.178;2023-04-15T06:50:17;7.40;;;5.20;;
76336;SDS011;65157;50.082;18.178;2023-04-15T06:52:44;6.90;;;5.20;;
76336;SDS011;65157;50.082;18.178;2023-04-15T06:55:11;6.20;;;4.20;;
76336;SDS011;65157;50.082;18.178;2023-04-15T06:57:38;5.90;;;4.30;;
76336;SDS011;65157;50.082;18.178;2023-04-15T07:00:07;7.40;;;5.50;;
76336;SDS011;65157;50.082;18.178;2023-04-15T07:02:36;8.20;;;6.40;;
76336;SDS011;65157;50.082;18.178;2023-04-15T07:05:03;8.60;;;5.80;;
76336;SDS011;65157;50.082;18.178;2023-04-15T07:07:32;7.20;;;4.80;;
76336;SDS011;65157;50.082;18.178;2023-04-15T07:09:59;7.50;;;5.20;;
76336;SDS011;65157;50.082;18.178;2023-04-15T07:12:26;7.60;;;5.20;;
76336;SDS011;65157;50.082;18.178;2023-04-15T07:14:53;6.50;;;4.50;;
76336;SDS011;65157;50.082;18.178;2023-04-15T07:17:20;5.70;;;3.40;;
76336;SDS011;65157;50.082;18.178;2023-04-15T07:19:47;5.30;;;3.20;;
76336;SDS011;65157;50.082;18.178;2023-04-15T07:22:13;4.70;;;2.50;;
76336;SDS011;65157;50.082;18.178;2023-04-15T07:24:40;2.80;;;2.20;;
76336;SDS011;65157;50.082;18.178;2023-04-15T07:27:07;3.50;;;2.30;;
76336;SDS011;65157;50.082;18.178;2023-04-15T07:29:33;2.40;;;1.70;;
76336;SDS011;65157;50.082;18.178;2023-04-15T07:32:00;2.40;;;2.20;;
76336;SDS011;65157;50.082;18.178;2023-04-15T07:34:27;3.20;;;2.40;;
76336;SDS011;65157;50.082;18.178;2023-04-15T07:36:54;2.30;;;2.10;;
76336;SDS011;65157;50.082;18.178;2023-04-15T07:39:21;2.30;;;2.10;;
76336;SDS011;65157;50.082;18.178;2023-04-15T07:41:47;2.70;;;1.80;;
76336;SDS011;65157;50.082;18.178;2023-04-15T07:44:14;2.90;;;2.10;;
76336;SDS011;65157;50.082;18.178;2023-04-15T07:46:41;2.40;;;2.10;;
76336;SDS011;65157;50.082;18.178;2023-04-15T07:49:07;2.70;;;1.90;;
76336;SDS011;65157;50.082;18.178;2023-04-15T07:51:37;1.80;;;1.70;;
76336;SDS011;65157;50.082;18.178;2023-04-15T07:54:03;2.30;;;1.80;;
76336;SDS011;65157;50.082;18.178;2023-04-15T07:56:30;1.90;;;1.70;;
76336;SDS011;65157;50.082;18.178;2023-04-15T07:58:57;2.10;;;1.80;;
76336;SDS011;65157;50.082;18.178;2023-04-15T08:01:24;1.70;;;1.40;;
76336;SDS011;65157;50.082;18.178;2023-04-15T08:03:51;1.50;;;1.30;;
76336;SDS011;65157;50.082;18.178;2023-04-15T08:06:18;1.50;;;1.40;;
76336;SDS011;65157;50.082;18.178;2023-04-15T08:08:44;1.60;;;1.50;;
76336;SDS011;65157;50.082;18.178;2023-04-15T08:11:11;2.00;;;1.70;;
76336;SDS011;65157;50.082;18.178;2023-04-15T08:13:38;1.70;;;1.50;;
76336;SDS011;65157;50.082;18.178;2023-04-15T08:16:23;1.70;;;1.00;;
76336;SDS011;65157;50.082;18.178;2023-04-15T08:18:51;1.90;;;1.20;;
76336;SDS011;65157;50.082;18.178;2023-04-15T08:21:22;1.60;;;1.50;;
76336;SDS011;65157;50.082;18.178;2023-04-15T08:23:51;1.40;;;1.30;;
76336;SDS011;65157;50.082;18.178;2023-04-15T08:26:21;1.70;;;1.60;;
76336;SDS011;65157;50.082;18.178;2023-04-15T08:28:48;1.60;;;1.50;;
76336;SDS011;65157;50.082;18.178;2023-04-15T08:31:16;1.70;;;1.60;;
76336;SDS011;65157;50.082;18.178;2023-04-15T08:33:44;1.70;;;1.60;;
76336;SDS011;65157;50.082;18.178;2023-04-15T08:36:11;2.50;;;1.60;;
76336;SDS011;65157;50.082;18.178;2023-04-15T08:38:39;2.20;;;1.70;;
76336;SDS011;65157;50.082;18.178;2023-04-15T08:41:08;2.80;;;1.80;;
76336;SDS011;65157;50.082;18.178;2023-04-15T08:43:41;2.30;;;1.70;;
76336;SDS011;65157;50.082;18.178;2023-04-15T08:46:14;1.70;;;1.60;;
76336;SDS011;65157;50.082;18.178;2023-04-15T08:48:42;2.20;;;1.70;;
76336;SDS011;65157;50.082;18.178;2023-04-15T08:51:12;2.70;;;1.70;;
76336;SDS011;65157;50.082;18.178;2023-04-15T08:56:10;1.70;;;1.40;;
76336;SDS011;65157;50.082;18.178;2023-04-15T08:58:38;3.30;;;1.50;;
76336;SDS011;65157;50.082;18.178;2023-04-15T09:01:08;2.00;;;1.70;;
76336;SDS011;65157;50.082;18.178;2023-04-15T09:03:35;1.90;;;1.60;;
76336;SDS011;65157;50.082;18.178;2023-04-15T09:06:03;1.50;;;1.40;;
76336;SDS011;65157;50.082;18.178;2023-04-15T09:08:30;1.60;;;1.50;;
76336;SDS011;65157;50.082;18.178;2023-04-15T09:13:23;1.80;;;1.70;;
76336;SDS011;65157;50.082;18.178;2023-04-15T09:15:50;2.50;;;2.00;;
76336;SDS011;65157;50.082;18.178;2023-04-15T09:18:28;1.90;;;1.50;;
76336;SDS011;65157;50.082;18.178;2023-04-15T09:21:03;2.00;;;1.60;;
76336;SDS011;65157;50.082;18.178;2023-04-15T09:23:53;2.30;;;1.50;;
76336;SDS011;65157;50.082;18.178;2023-04-15T09:26:34;1.50;;;1.40;;
76336;SDS011;65157;50.082;18.178;2023-04-15T09:29:05;1.70;;;1.60;;
76336;SDS011;65157;50.082;18.178;2023-04-15T09:31:33;2.50;;;1.70;;
76336;SDS011;65157;50.082;18.178;2023-04-15T09:34:05;2.00;;;1.80;;
76336;SDS011;65157;50.082;18.178;2023-04-15T09:39:11;2.20;;;2.00;;
76336;SDS011;65157;50.082;18.178;2023-04-15T09:41:38;2.00;;;1.80;;
76336;SDS011;65157;50.082;18.178;2023-04-15T09:44:06;2.50;;;2.00;;
76336;SDS011;65157;50.082;18.178;2023-04-15T09:49:12;1.70;;;1.20;;
76336;SDS011;65157;50.082;18.178;2023-04-15T09:51:44;2.80;;;1.40;;
76336;SDS011;65157;50.082;18.178;2023-04-15T09:54:10;3.80;;;1.70;;
76336;SDS011;65157;50.082;18.178;2023-04-15T09:56:38;1.70;;;1.50;;
76336;SDS011;65157;50.082;18.178;2023-04-15T09:59:05;1.80;;;1.50;;
76336;SDS011;65157;50.082;18.178;2023-04-15T10:01:31;1.80;;;1.30;;
76336;SDS011;65157;50.082;18.178;2023-04-15T10:04:01;1.60;;;1.50;;
76336;SDS011;65157;50.082;18.178;2023-04-15T10:06:34;1.70;;;1.30;;
76336;SDS011;65157;50.082;18.178;2023-04-15T10:09:01;2.20;;;1.50;;
76336;SDS011;65157;50.082;18.178;2023-04-15T10:11:28;1.70;;;1.50;;
76336;SDS011;65157;50.082;18.178;2023-04-15T10:13:58;2.20;;;1.60;;
76336;SDS011;65157;50.082;18.178;2023-04-15T10:16:27;2.50;;;1.30;;
76336;SDS011;65157;50.082;18.178;2023-04-15T10:18:55;1.70;;;1.20;;
76336;SDS011;65157;50.082;18.178;2023-04-15T10:21:23;1.50;;;1.30;;
76336;SDS011;65157;50.082;18.178;2023-04-15T10:23:52;2.60;;;1.30;;
76336;SDS011;65157;50.082;18.178;2023-04-15T10:26:19;1.90;;;1.40;;
76336;SDS011;65157;50.082;18.178;2023-04-15T10:28:47;2.60;;;1.40;;
76336;SDS011;65157;50.082;18.178;2023-04-15T10:31:17;2.20;;;1.70;;
76336;SDS011;65157;50.082;18.178;2023-04-15T10:33:45;2.80;;;1.30;;
76336;SDS011;65157;50.082;18.178;2023-04-15T10:36:13;1.70;;;1.30;;
76336;SDS011;65157;50.082;18.178;2023-04-15T10:38:44;2.40;;;1.50;;
76336;SDS011;65157;50.082;18.178;2023-04-15T10:41:15;1.60;;;1.50;;
76336;SDS011;65157;50.082;18.178;2023-04-15T10:43:50;1.80;;;1.60;;
76336;SDS011;65157;50.082;18.178;2023-04-15T10:46:42;1.70;;;1.20;;
76336;SDS011;65157;50.082;18.178;2023-04-15T10:49:22;1.10;;;1.10;;
76336;SDS011;65157;50.082;18.178;2023-04-15T10:51:51;1.60;;;1.20;;
76336;SDS011;65157;50.082;18.178;2023-04-15T10:54:31;1.50;;;0.90;;
76336;SDS011;65157;50.082;18.178;2023-04-15T10:59:36;1.40;;;1.30;;
76336;SDS011;65157;50.082;18.178;2023-04-15T11:02:05;1.20;;;1.00;;
76336;SDS011;65157;50.082;18.178;2023-04-15T11:12:46;5.20;;;1.60;;
76336;SDS011;65157;50.082;18.178;2023-04-15T11:20:40;1.80;;;1.60;;
76336;SDS011;65157;50.082;18.178;2023-04-15T11:23:09;2.20;;;1.70;;
76336;SDS011;65157;50.082;18.178;2023-04-15T11:25:38;1.40;;;1.30;;
76336;SDS011;65157;50.082;18.178;2023-04-15T11:28:05;1.60;;;1.20;;
76336;SDS011;65157;50.082;18.178;2023-04-15T11:30:35;1.80;;;1.20;;
76336;SDS011;65157;50.082;18.178;2023-04-15T11:33:08;2.00;;;1.60;;
76336;SDS011;65157;50.082;18.178;2023-04-15T11:35:36;2.20;;;1.60;;
76336;SDS011;65157;50.082;18.178;2023-04-15T11:38:04;2.30;;;1.40;;
76336;SDS011;65157;50.082;18.178;2023-04-15T11:40:33;1.60;;;1.30;;
76336;SDS011;65157;50.082;18.178;2023-04-15T11:45:33;2.30;;;1.40;;
76336;SDS011;65157;50.082;18.178;2023-04-15T11:48:07;1.50;;;1.30;;
76336;SDS011;65157;50.082;18.178;2023-04-15T11:50:36;2.60;;;1.60;;
76336;SDS011;65157;50.082;18.178;2023-04-15T11:53:04;2.00;;;1.50;;
76336;SDS011;65157;50.082;18.178;2023-04-15T11:55:40;1.90;;;1.60;;
76336;SDS011;65157;50.082;18.178;2023-04-15T11:58:12;2.70;;;1.60;;
76336;SDS011;65157;50.082;18.178;2023-04-15T12:00:48;1.50;;;1.40;;
76336;SDS011;65157;50.082;18.178;2023-04-15T12:06:11;1.70;;;1.50;;
76336;SDS011;65157;50.082;18.178;2023-04-15T12:13:53;1.60;;;1.50;;
76336;SDS011;65157;50.082;18.178;2023-04-15T12:16:22;3.50;;;1.70;;
76336;SDS011;65157;50.082;18.178;2023-04-15T12:18:53;2.60;;;1.60;;
76336;SDS011;65157;50.082;18.178;2023-04-15T12:21:23;2.20;;;1.80;;
76336;SDS011;65157;50.082;18.178;2023-04-15T12:24:00;2.30;;;1.70;;
76336;SDS011;65157;50.082;18.178;2023-04-15T12:26:42;1.70;;;1.60;;
76336;SDS011;65157;50.082;18.178;2023-04-15T12:29:11;1.70;;;1.60;;
76336;SDS011;65157;50.082;18.178;2023-04-15T12:31:50;2.00;;;1.80;;
76336;SDS011;65157;50.082;18.178;2023-04-15T12:35:04;1.70;;;1.30;;
76336;SDS011;65157;50.082;18.178;2023-04-15T12:37:07;1.70;;;1.40;;
76336;SDS011;65157;50.082;18.178;2023-04-15T12:39:36;2.70;;;1.40;;
76336;SDS011;65157;50.082;18.178;2023-04-15T12:42:04;2.40;;;1.40;;
76336;SDS011;65157;50.082;18.178;2023-04-15T12:44:35;1.50;;;1.40;;
76336;SDS011;65157;50.082;18.178;2023-04-15T12:47:03;2.70;;;1.50;;
76336;SDS011;65157;50.082;18.178;2023-04-15T12:49:30;1.50;;;1.10;;
76336;SDS011;65157;50.082;18.178;2023-04-15T12:51:57;1.70;;;1.60;;
76336;SDS011;65157;50.082;18.178;2023-04-15T12:54:25;2.00;;;1.50;;
76336;SDS011;65157;50.082;18.178;2023-04-15T12:56:53;1.40;;;1.30;;
76336;SDS011;65157;50.082;18.178;2023-04-15T12:59:20;1.70;;;1.20;;
76336;SDS011;65157;50.082;18.178;2023-04-15T13:01:48;1.60;;;1.50;;
76336;SDS011;65157;50.082;18.178;2023-04-15T13:04:15;1.50;;;1.40;;
76336;SDS011;65157;50.082;18.178;2023-04-15T13:06:42;1.60;;;1.50;;
76336;SDS011;65157;50.082;18.178;2023-04-15T13:09:09;1.50;;;1.40;;
76336;SDS011;65157;50.082;18.178;2023-04-15T13:11:38;1.60;;;1.50;;
76336;SDS011;65157;50.082;18.178;2023-04-15T13:16:33;1.70;;;1.60;;
76336;SDS011;65157;50.082;18.178;2023-04-15T13:19:00;1.70;;;1.60;;
76336;SDS011;65157;50.082;18.178;2023-04-15T13:21:29;2.80;;;1.80;;
76336;SDS011;65157;50.082;18.178;2023-04-15T13:23:56;2.10;;;1.80;;
76336;SDS011;65157;50.082;18.178;2023-04-15T13:26:23;2.00;;;1.80;;
76336;SDS011;65157;50.082;18.178;2023-04-15T13:29:02;2.10;;;1.70;;
76336;SDS011;65157;50.082;18.178;2023-04-15T13:31:32;1.70;;;1.50;;
76336;SDS011;65157;50.082;18.178;2023-04-15T13:33:58;1.60;;;1.50;;
76336;SDS011;65157;50.082;18.178;2023-04-15T13:36:25;2.00;;;1.30;;
76336;SDS011;65157;50.082;18.178;2023-04-15T13:38:52;1.70;;;1.60;;
76336;SDS011;65157;50.082;18.178;2023-04-15T13:41:19;1.80;;;1.40;;
76336;SDS011;65157;50.082;18.178;2023-04-15T13:43:45;1.50;;;1.40;;
76336;SDS011;65157;50.082;18.178;2023-04-15T13:46:12;1.50;;;1.40;;
76336;SDS011;65157;50.082;18.178;2023-04-15T13:48:39;1.30;;;0.90;;
76336;SDS011;65157;50.082;18.178;2023-04-15T13:51:05;1.20;;;1.10;;
76336;SDS011;65157;50.082;18.178;2023-04-15T13:53:32;1.50;;;1.40;;
76336;SDS011;65157;50.082;18.178;2023-04-15T13:55:59;1.20;;;1.10;;
76336;SDS011;65157;50.082;18.178;2023-04-15T13:58:28;1.80;;;1.50;;
76336;SDS011;65157;50.082;18.178;2023-04-15T14:00:55;3.10;;;1.90;;
76336;SDS011;65157;50.082;18.178;2023-04-15T14:03:22;1.70;;;1.60;;
76336;SDS011;65157;50.082;18.178;2023-04-15T14:05:48;1.30;;;1.20;;
76336;SDS011;65157;50.082;18.178;2023-04-15T14:08:15;1.40;;;1.30;;
76336;SDS011;65157;50.082;18.178;2023-04-15T14:10:42;1.80;;;1.70;;
76336;SDS011;65157;50.082;18.178;2023-04-15T14:13:09;1.80;;;1.40;;
76336;SDS011;65157;50.082;18.178;2023-04-15T14:15:38;2.10;;;1.80;;
76336;SDS011;65157;50.082;18.178;2023-04-15T14:18:05;1.60;;;1.40;;
76336;SDS011;65157;50.082;18.178;2023-04-15T14:20:34;1.80;;;1.20;;
76336;SDS011;65157;50.082;18.178;2023-04-15T14:23:01;1.70;;;1.60;;
76336;SDS011;65157;50.082;18.178;2023-04-15T14:25:29;2.00;;;1.20;;
76336;SDS011;65157;50.082;18.178;2023-04-15T14:27:56;1.60;;;1.50;;
76336;SDS011;65157;50.082;18.178;2023-04-15T14:30:22;1.60;;;1.30;;
76336;SDS011;65157;50.082;18.178;2023-04-15T14:32:49;2.40;;;1.70;;
76336;SDS011;65157;50.082;18.178;2023-04-15T14:35:16;3.60;;;2.60;;
76336;SDS011;65157;50.082;18.178;2023-04-15T14:37:43;2.60;;;1.90;;
76336;SDS011;65157;50.082;18.178;2023-04-15T14:40:09;2.10;;;1.60;;
76336;SDS011;65157;50.082;18.178;2023-04-15T14:42:36;2.90;;;1.90;;
76336;SDS011;65157;50.082;18.178;2023-04-15T14:45:03;3.70;;;2.10;;
76336;SDS011;65157;50.082;18.178;2023-04-15T14:47:31;3.60;;;2.40;;
76336;SDS011;65157;50.082;18.178;2023-04-15T14:49:57;2.30;;;1.60;;
76336;SDS011;65157;50.082;18.178;2023-04-15T14:52:25;2.90;;;2.10;;
76336;SDS011;65157;50.082;18.178;2023-04-15T14:55:09;2.50;;;2.30;;
76336;SDS011;65157;50.082;18.178;2023-04-15T14:57:37;4.70;;;2.20;;
76336;SDS011;65157;50.082;18.178;2023-04-15T15:00:04;2.10;;;1.80;;
76336;SDS011;65157;50.082;18.178;2023-04-15T15:02:37;3.90;;;2.80;;
76336;SDS011;65157;50.082;18.178;2023-04-15T15:05:03;17.10;;;4.20;;
76336;SDS011;65157;50.082;18.178;2023-04-15T15:07:30;6.80;;;3.40;;
76336;SDS011;65157;50.082;18.178;2023-04-15T15:09:57;7.00;;;3.70;;
76336;SDS011;65157;50.082;18.178;2023-04-15T15:14:50;4.00;;;2.60;;
76336;SDS011;65157;50.082;18.178;2023-04-15T15:17:26;3.90;;;2.50;;
76336;SDS011;65157;50.082;18.178;2023-04-15T15:19:53;3.00;;;2.30;;
76336;SDS011;65157;50.082;18.178;2023-04-15T15:22:19;4.50;;;2.50;;